createdAt,value
2017-10-12T00:01:46.567Z,11.43
2017-10-12T00:04:13.178Z,10.57
2017-10-12T00:06:39.802Z,11.10
2017-10-12T00:09:06.418Z,10.93
2017-10-12T00:11:33.038Z,9.98
2017-10-12T00:13:59.654Z,10.52
2017-10-12T00:16:26.266Z,10.32
2017-10-12T00:18:52.890Z,10.50
2017-10-12T00:21:19.494Z,9.68
2017-10-12T00:23:46.162Z,11.45
2017-10-12T00:26:12.791Z,10.30
2017-10-12T00:28:39.402Z,11.35
2017-10-12T00:31:06.014Z,9.38
2017-10-12T00:33:32.642Z,10.85
2017-10-12T00:35:59.259Z,9.45
2017-10-12T00:38:25.866Z,11.27
2017-10-12T00:40:52.541Z,9.63
2017-10-12T00:43:19.154Z,10.05
2017-10-12T00:45:45.766Z,11.12
2017-10-12T00:48:12.447Z,9.48
2017-10-12T00:50:39.052Z,9.25
2017-10-12T00:53:05.664Z,10.90
2017-10-12T00:55:32.290Z,9.23
2017-10-12T00:57:58.902Z,10.32
2017-10-12T01:00:25.546Z,9.55
2017-10-12T01:02:52.170Z,11.30
2017-10-12T01:05:18.779Z,8.20
2017-10-12T01:07:45.390Z,8.88
2017-10-12T01:10:12.019Z,8.90
2017-10-12T01:12:38.620Z,8.27
2017-10-12T01:15:05.230Z,9.65
2017-10-12T01:17:31.852Z,8.05
2017-10-12T01:19:58.462Z,8.63
2017-10-12T01:22:25.072Z,8.40
2017-10-12T01:24:51.718Z,9.35
2017-10-12T01:27:18.322Z,8.98
2017-10-12T01:29:44.928Z,7.97
2017-10-12T01:32:11.648Z,8.50
2017-10-12T01:34:38.246Z,8.55
2017-10-12T01:37:04.851Z,8.85
2017-10-12T01:39:31.472Z,8.15
2017-10-12T01:41:58.083Z,8.88
2017-10-12T01:44:24.733Z,8.30
2017-10-12T01:46:51.375Z,9.23
2017-10-12T01:49:17.991Z,8.50
2017-10-12T01:51:44.597Z,9.05
2017-10-12T01:54:11.223Z,8.70
2017-10-12T01:56:37.830Z,8.52
2017-10-12T01:59:04.450Z,8.90
2017-10-12T02:01:31.108Z,8.95
2017-10-12T02:03:57.715Z,8.18
2017-10-12T02:06:24.330Z,8.27
2017-10-12T02:08:50.990Z,8.27
2017-10-12T02:11:17.603Z,9.23
2017-10-12T02:13:45.005Z,8.52
2017-10-12T02:16:11.619Z,8.80
2017-10-12T02:18:38.308Z,8.27
2017-10-12T02:21:04.935Z,8.63
2017-10-12T02:23:31.573Z,7.78
2017-10-12T02:25:58.177Z,8.38
2017-10-12T02:28:24.863Z,9.35
2017-10-12T02:30:51.504Z,9.38
2017-10-12T02:33:18.115Z,9.35
2017-10-12T02:35:44.739Z,8.65
2017-10-12T02:38:11.347Z,8.73
2017-10-12T02:40:37.951Z,8.43
2017-10-12T02:43:04.572Z,8.60
2017-10-12T02:45:31.183Z,8.82
2017-10-12T02:47:57.790Z,8.80
2017-10-12T02:50:24.507Z,8.38
2017-10-12T02:52:51.110Z,8.95
2017-10-12T02:55:17.719Z,9.27
2017-10-12T02:57:44.341Z,9.75
2017-10-12T03:00:10.958Z,9.80
2017-10-12T03:02:37.559Z,9.10
2017-10-12T03:05:04.178Z,8.70
2017-10-12T03:07:30.787Z,8.57
2017-10-12T03:09:57.415Z,9.48
2017-10-12T03:12:24.046Z,8.73
2017-10-12T03:14:50.650Z,9.10
2017-10-12T03:17:17.254Z,9.07
2017-10-12T03:19:43.878Z,8.10
2017-10-12T03:22:10.487Z,9.52
2017-10-12T03:24:37.147Z,7.75
2017-10-12T03:27:03.771Z,8.55
2017-10-12T03:29:30.379Z,8.85
2017-10-12T03:31:57.062Z,8.73
2017-10-12T03:34:23.682Z,8.82
2017-10-12T03:36:50.295Z,9.23
2017-10-12T03:39:16.975Z,9.05
2017-10-12T03:41:43.598Z,9.70
2017-10-12T03:44:10.210Z,9.77
2017-10-12T03:46:36.818Z,10.13
2017-10-12T03:49:03.438Z,9.52
2017-10-12T03:51:30.046Z,9.23
2017-10-12T03:53:56.650Z,9.60
2017-10-12T03:56:23.276Z,9.20
2017-10-12T03:58:49.986Z,9.10
2017-10-12T04:01:16.611Z,9.55
2017-10-12T04:03:43.222Z,9.55
2017-10-12T04:06:09.830Z,9.70
2017-10-12T04:08:36.546Z,9.02
2017-10-12T04:11:03.182Z,11.25
2017-10-12T04:13:29.823Z,9.65
2017-10-12T04:15:56.451Z,9.60
2017-10-12T04:18:23.050Z,8.85
2017-10-12T04:20:49.667Z,9.70
2017-10-12T04:23:16.287Z,10.00
2017-10-12T04:25:42.893Z,8.57
2017-10-12T04:28:09.598Z,10.43
2017-10-12T04:30:36.340Z,9.30
2017-10-12T04:33:02.950Z,10.10
2017-10-12T04:35:29.574Z,9.93
2017-10-12T04:37:56.313Z,10.88
2017-10-12T04:40:22.928Z,10.48
2017-10-12T04:42:49.582Z,9.93
2017-10-12T04:45:16.230Z,10.68
2017-10-12T04:47:42.840Z,9.40
2017-10-12T04:50:09.449Z,10.48
2017-10-12T04:52:36.072Z,9.50
2017-10-12T04:55:02.792Z,9.25
2017-10-12T04:57:29.386Z,8.77
2017-10-12T04:59:56.007Z,8.60
2017-10-12T05:02:22.618Z,10.27
2017-10-12T05:04:49.226Z,9.05
2017-10-12T05:07:15.838Z,8.73
2017-10-12T05:09:42.482Z,9.95
2017-10-12T05:12:09.106Z,9.18
2017-10-12T05:14:35.808Z,9.30
2017-10-12T05:17:02.438Z,8.60
2017-10-12T05:19:29.062Z,9.77
2017-10-12T05:21:55.679Z,10.20
2017-10-12T05:24:22.359Z,9.80
2017-10-12T05:26:49.037Z,9.82
2017-10-12T05:29:15.654Z,10.95
2017-10-12T05:31:42.270Z,8.65
2017-10-12T05:34:08.872Z,8.60
2017-10-12T05:36:35.479Z,8.07
2017-10-12T05:39:02.102Z,9.25
2017-10-12T05:41:28.711Z,8.00
2017-10-12T05:43:55.369Z,7.70
2017-10-12T05:46:21.994Z,8.85
2017-10-12T05:48:48.689Z,7.68
2017-10-12T05:51:15.300Z,7.07
2017-10-12T05:53:41.918Z,8.13
2017-10-12T05:56:08.518Z,7.87
2017-10-12T05:58:35.194Z,7.57
2017-10-12T06:01:01.820Z,8.18
2017-10-12T06:03:28.430Z,7.72
2017-10-12T06:05:55.046Z,10.43
2017-10-12T06:08:21.658Z,8.30
2017-10-12T06:10:48.266Z,8.77
2017-10-12T06:13:14.897Z,8.32
2017-10-12T06:15:41.504Z,8.35
2017-10-12T06:18:08.111Z,9.38
2017-10-12T06:20:34.730Z,8.25
2017-10-12T06:23:01.344Z,8.25
2017-10-12T06:25:28.030Z,8.35
2017-10-12T06:27:54.767Z,9.70
2017-10-12T06:30:21.380Z,8.43
2017-10-12T06:32:47.995Z,7.70
2017-10-12T06:35:14.607Z,6.97
2017-10-12T06:37:41.218Z,6.78
2017-10-12T06:40:07.839Z,7.30
2017-10-12T06:42:34.442Z,7.03
2017-10-12T06:45:01.050Z,7.05
2017-10-12T06:47:27.669Z,6.80
2017-10-12T06:49:54.277Z,7.45
2017-10-12T06:52:20.883Z,6.32
2017-10-12T06:54:47.502Z,6.78
2017-10-12T06:57:14.107Z,7.25
2017-10-12T06:59:40.762Z,6.93
2017-10-12T07:02:07.383Z,6.60
2017-10-12T07:04:33.987Z,6.43
2017-10-12T07:07:00.615Z,5.95
2017-10-12T07:09:27.219Z,7.37
2017-10-12T07:11:53.831Z,6.65
2017-10-12T07:14:20.442Z,6.60
2017-10-12T07:16:47.047Z,6.37
2017-10-12T07:19:13.671Z,6.78
2017-10-12T07:21:40.270Z,7.10
2017-10-12T07:24:06.994Z,7.62
2017-10-12T07:26:33.614Z,10.57
2017-10-12T07:29:00.231Z,13.45
2017-10-12T07:31:26.869Z,7.70
2017-10-12T07:33:53.495Z,9.25
2017-10-12T07:36:20.103Z,6.80
2017-10-12T07:38:46.702Z,5.53
2017-10-12T07:41:13.326Z,4.62
2017-10-12T07:43:39.930Z,4.80
2017-10-12T07:46:06.529Z,5.68
2017-10-12T07:48:33.239Z,4.82
2017-10-12T07:50:59.837Z,5.68
2017-10-12T07:53:26.438Z,5.50
2017-10-12T07:55:53.066Z,6.30
2017-10-12T07:58:19.690Z,6.20
2017-10-12T08:00:46.374Z,5.60
2017-10-12T08:03:12.994Z,6.28
2017-10-12T08:05:39.596Z,6.30
2017-10-12T08:08:06.292Z,5.15
2017-10-12T08:10:32.915Z,5.82
2017-10-12T08:12:59.568Z,5.43
2017-10-12T08:15:26.246Z,5.97
2017-10-12T08:17:52.857Z,6.53
2017-10-12T08:20:19.459Z,5.40
2017-10-12T08:22:46.086Z,5.50
2017-10-12T08:25:12.700Z,5.50
2017-10-12T08:27:39.302Z,5.00
2017-10-12T08:30:05.922Z,4.80
2017-10-12T08:32:32.639Z,5.47
2017-10-12T08:34:59.279Z,5.30
2017-10-12T08:37:25.913Z,5.53
2017-10-12T08:39:52.519Z,4.15
2017-10-12T08:42:19.122Z,4.15
2017-10-12T08:44:45.751Z,4.30
2017-10-12T08:47:12.356Z,4.87
2017-10-12T08:49:38.959Z,4.53
2017-10-12T08:52:05.574Z,5.20
2017-10-12T08:54:32.178Z,4.70
2017-10-12T08:56:58.824Z,4.12
2017-10-12T08:59:25.447Z,4.05
2017-10-12T09:01:52.045Z,3.85
2017-10-12T09:04:18.651Z,3.53
2017-10-12T09:06:45.277Z,4.97
2017-10-12T09:09:11.883Z,4.53
2017-10-12T09:11:38.556Z,4.28
2017-10-12T09:14:05.170Z,3.95
2017-10-12T09:16:31.783Z,4.12
2017-10-12T09:18:58.474Z,4.20
2017-10-12T09:21:25.155Z,4.18
2017-10-12T09:23:51.852Z,3.90
2017-10-12T09:26:25.253Z,3.67
2017-10-12T09:28:51.853Z,4.55
2017-10-12T09:31:18.476Z,4.40
2017-10-12T09:33:45.209Z,5.35
2017-10-12T09:36:11.814Z,4.80
2017-10-12T09:38:38.435Z,3.87
2017-10-12T09:41:05.034Z,4.37
2017-10-12T09:43:31.643Z,4.68
2017-10-12T09:45:58.267Z,4.65
2017-10-12T09:48:24.867Z,4.15
2017-10-12T09:50:51.472Z,4.57
2017-10-12T09:53:18.174Z,4.18
2017-10-12T09:55:44.820Z,5.12
2017-10-12T09:58:11.454Z,3.97
2017-10-12T10:00:38.078Z,4.12
2017-10-12T10:03:04.683Z,4.28
2017-10-12T10:05:31.287Z,5.28
2017-10-12T10:07:57.908Z,3.95
2017-10-12T10:10:24.510Z,3.97
2017-10-12T10:12:51.110Z,4.30
2017-10-12T10:15:17.727Z,4.20
2017-10-12T10:17:44.336Z,3.60
2017-10-12T10:20:10.968Z,4.47
2017-10-12T10:22:37.571Z,3.65
2017-10-12T10:25:04.280Z,4.10
2017-10-12T10:27:30.923Z,3.70
2017-10-12T10:29:57.518Z,3.53
2017-10-12T10:32:24.199Z,3.75
2017-10-12T10:34:50.822Z,4.45
2017-10-12T10:37:17.427Z,3.87
2017-10-12T10:39:44.031Z,4.18
2017-10-12T10:42:10.651Z,4.10
2017-10-12T10:44:37.255Z,4.25
2017-10-12T10:47:03.867Z,3.70
2017-10-12T10:49:30.492Z,3.90
2017-10-12T10:51:57.207Z,4.00
2017-10-12T10:54:23.889Z,4.10
2017-10-12T10:56:50.630Z,4.32
2017-10-12T10:59:17.238Z,4.93
2017-10-12T11:01:43.846Z,4.10
2017-10-12T11:04:10.474Z,4.32
2017-10-12T11:06:37.393Z,4.28
2017-10-12T11:09:04.339Z,4.00
2017-10-12T11:11:31.212Z,4.25
2017-10-12T11:13:58.228Z,4.45
2017-10-12T11:16:24.863Z,4.40
2017-10-12T11:18:51.495Z,3.75
2017-10-12T11:21:18.147Z,4.57
2017-10-12T11:23:44.892Z,4.55
2017-10-12T11:26:11.495Z,3.83
2017-10-12T11:28:38.815Z,3.87
2017-10-12T11:31:05.478Z,3.45
2017-10-12T11:33:32.195Z,3.10
2017-10-12T11:35:58.863Z,3.53
2017-10-12T11:38:25.747Z,3.00
2017-10-12T11:40:52.417Z,3.00
2017-10-12T11:43:19.087Z,2.92
2017-10-12T11:45:45.809Z,3.12
2017-10-12T11:48:12.423Z,3.33
2017-10-12T11:50:39.030Z,3.50
2017-10-12T11:53:05.709Z,2.80
2017-10-12T11:55:32.351Z,3.50
2017-10-12T11:57:59.017Z,3.60
2017-10-12T12:00:25.642Z,3.05
2017-10-12T12:02:52.243Z,3.00
2017-10-12T12:05:18.843Z,2.90
2017-10-12T12:07:45.516Z,2.17
2017-10-12T12:10:12.120Z,2.47
2017-10-12T12:12:38.728Z,2.80
2017-10-12T12:15:05.342Z,2.72
2017-10-12T12:17:32.134Z,2.47
2017-10-12T12:19:58.738Z,3.22
2017-10-12T12:22:25.359Z,2.12
2017-10-12T12:24:51.989Z,2.30
2017-10-12T12:27:18.590Z,2.25
2017-10-12T12:29:45.224Z,2.70
2017-10-12T12:32:11.822Z,2.92
2017-10-12T12:34:38.442Z,2.72
2017-10-12T12:37:05.046Z,2.95
2017-10-12T12:39:31.649Z,2.58
2017-10-12T12:41:58.322Z,2.42
2017-10-12T12:44:24.923Z,2.75
2017-10-12T12:46:51.527Z,2.53
2017-10-12T12:49:18.158Z,2.05
2017-10-12T12:51:44.759Z,3.20
2017-10-12T12:54:11.365Z,2.85
2017-10-12T12:56:37.982Z,2.10
2017-10-12T12:59:04.588Z,2.12
2017-10-12T13:01:31.200Z,2.30
2017-10-12T13:03:57.857Z,1.70
2017-10-12T13:06:24.497Z,2.10
2017-10-12T13:08:51.142Z,2.08
2017-10-12T13:11:17.762Z,1.55
2017-10-12T13:13:44.389Z,2.50
2017-10-12T13:16:10.998Z,1.70
2017-10-12T13:18:37.614Z,1.87
2017-10-12T13:21:04.214Z,1.95
2017-10-12T13:23:30.823Z,2.03
2017-10-12T13:25:57.457Z,2.12
2017-10-12T13:28:24.058Z,1.95
2017-10-12T13:30:50.731Z,2.50
2017-10-12T13:33:17.343Z,2.60
2017-10-12T13:35:43.957Z,2.03
2017-10-12T13:38:10.557Z,2.83
2017-10-12T13:40:37.174Z,1.70
2017-10-12T13:43:03.783Z,2.10
2017-10-12T13:45:30.418Z,1.80
2017-10-12T13:47:57.044Z,2.30
2017-10-12T13:50:23.704Z,2.40
2017-10-12T13:52:50.311Z,2.00
2017-10-12T13:55:16.927Z,1.98
2017-10-12T13:57:43.613Z,1.85
2017-10-12T14:00:10.250Z,2.20
2017-10-12T14:02:36.853Z,2.15
2017-10-12T14:05:03.450Z,2.75
2017-10-12T14:07:30.069Z,2.35
2017-10-12T14:09:56.674Z,1.95
2017-10-12T14:12:23.279Z,2.20
2017-10-12T14:14:49.909Z,2.37
2017-10-12T14:17:16.507Z,2.65
2017-10-12T14:19:43.118Z,2.28
2017-10-12T14:22:09.739Z,2.50
2017-10-12T14:24:36.344Z,2.60
2017-10-12T14:27:02.953Z,1.70
2017-10-12T14:29:29.610Z,2.30
2017-10-12T14:31:56.215Z,2.37
2017-10-12T14:34:22.823Z,2.25
2017-10-12T14:36:49.443Z,2.33
2017-10-12T14:39:16.043Z,2.30
2017-10-12T14:41:42.649Z,1.75
2017-10-12T14:44:09.270Z,2.55
2017-10-12T14:46:35.870Z,2.25
2017-10-12T14:49:02.487Z,2.28
2017-10-12T14:51:29.102Z,2.10
2017-10-12T14:53:55.702Z,1.90
2017-10-12T14:56:22.311Z,1.77
2017-10-12T14:58:48.931Z,2.12
2017-10-12T15:01:15.599Z,2.12
2017-10-12T15:03:42.207Z,2.10
2017-10-12T15:06:08.822Z,2.70
2017-10-12T15:08:35.432Z,1.85
2017-10-12T15:11:02.038Z,2.15
2017-10-12T15:13:28.653Z,2.00
2017-10-12T15:15:55.271Z,2.05
2017-10-12T15:18:21.879Z,1.67
2017-10-12T15:20:48.498Z,2.03
2017-10-12T15:23:15.107Z,2.58
2017-10-12T15:25:41.806Z,2.30
2017-10-12T15:28:08.405Z,2.37
2017-10-12T15:30:35.008Z,2.05
2017-10-12T15:33:01.623Z,2.35
2017-10-12T15:35:28.258Z,2.60
2017-10-12T15:37:55.044Z,2.40
2017-10-12T15:40:21.676Z,3.03
2017-10-12T15:42:48.280Z,2.72
2017-10-12T15:45:14.914Z,2.25
2017-10-12T15:47:41.543Z,2.85
2017-10-12T15:50:08.146Z,2.97
2017-10-12T15:52:34.750Z,2.60
2017-10-12T15:55:01.366Z,2.75
2017-10-12T15:57:27.979Z,3.03
2017-10-12T15:59:54.651Z,2.87
2017-10-12T16:02:21.258Z,2.70
2017-10-12T16:04:47.925Z,3.25
2017-10-12T16:07:14.554Z,3.17
2017-10-12T16:09:41.166Z,3.53
2017-10-12T16:12:07.768Z,2.78
2017-10-12T16:14:34.483Z,3.35
2017-10-12T16:17:01.123Z,3.60
2017-10-12T16:19:27.734Z,3.70
2017-10-12T16:21:54.339Z,3.53
2017-10-12T16:24:21.035Z,4.20
2017-10-12T16:26:47.663Z,4.72
2017-10-12T16:29:14.318Z,5.20
2017-10-12T16:31:40.955Z,4.12
2017-10-12T16:34:07.576Z,4.40
2017-10-12T16:36:34.180Z,4.00
2017-10-12T16:39:00.799Z,4.80
2017-10-12T16:41:27.419Z,4.80
2017-10-12T16:43:54.018Z,4.55
2017-10-12T16:46:20.646Z,4.85
2017-10-12T16:48:47.250Z,4.60
2017-10-12T16:51:13.958Z,4.78
2017-10-12T16:53:41.506Z,5.60
2017-10-12T16:56:08.114Z,6.12
2017-10-12T16:58:34.719Z,5.12
2017-10-12T17:01:01.344Z,4.93
2017-10-12T17:03:27.973Z,5.40
2017-10-12T17:05:54.574Z,5.03
2017-10-12T17:08:21.203Z,5.47
2017-10-12T17:10:47.807Z,5.43
2017-10-12T17:13:14.409Z,5.80
2017-10-12T17:18:07.651Z,6.00
2017-10-12T17:20:34.254Z,5.57
2017-10-12T17:23:00.878Z,6.03
2017-10-12T17:25:27.478Z,6.40
2017-10-12T17:27:54.098Z,6.20
2017-10-12T17:30:20.707Z,5.55
2017-10-12T17:32:47.342Z,5.45
2017-10-12T17:35:13.962Z,6.78
2017-10-12T17:37:40.570Z,5.28
2017-10-12T17:40:07.178Z,5.75
2017-10-12T17:42:33.903Z,5.85
2017-10-12T17:45:00.501Z,7.22
2017-10-12T17:47:27.186Z,6.70
2017-10-12T17:49:53.819Z,6.82
2017-10-12T17:52:20.424Z,6.55
2017-10-12T17:54:47.036Z,5.87
2017-10-12T17:57:13.658Z,6.50
2017-10-12T17:59:40.266Z,6.10
2017-10-12T18:02:06.883Z,7.22
2017-10-12T18:04:48.467Z,6.45
2017-10-12T18:07:00.182Z,6.32
2017-10-12T18:09:26.791Z,5.43
2017-10-12T18:16:46.641Z,6.35
2017-10-12T18:19:13.258Z,6.12
2017-10-12T18:21:39.863Z,6.30
2017-10-12T18:24:06.478Z,6.93
2017-10-12T18:26:33.194Z,6.82
2017-10-12T18:28:59.794Z,6.37
2017-10-12T18:31:26.428Z,6.80
2017-10-12T18:33:53.035Z,6.85
2017-10-12T18:36:19.745Z,7.40
2017-10-12T18:38:46.371Z,8.40
2017-10-12T18:41:12.975Z,6.95
2017-10-12T18:43:39.592Z,6.18
2017-10-12T18:46:06.206Z,6.05
2017-10-12T18:48:32.847Z,6.50
2017-10-12T18:50:59.478Z,5.87
2017-10-12T18:53:26.102Z,6.50
2017-10-12T18:55:52.758Z,6.45
2017-10-12T18:58:19.362Z,5.85
2017-10-12T19:00:46.003Z,6.60
2017-10-12T19:03:12.601Z,6.25
2017-10-12T19:05:39.202Z,6.30
2017-10-12T19:08:05.844Z,7.05
2017-10-12T19:10:32.448Z,7.85
2017-10-12T19:12:59.070Z,6.55
2017-10-12T19:15:25.675Z,6.50
2017-10-12T19:17:52.281Z,7.00
2017-10-12T19:20:18.906Z,13.18
2017-10-12T19:22:45.531Z,25.45
2017-10-12T19:25:12.147Z,35.42
2017-10-12T19:27:38.771Z,27.13
2017-10-12T19:30:05.398Z,13.55
2017-10-12T19:32:32.014Z,22.20
2017-10-12T19:34:58.642Z,20.98
2017-10-12T19:37:25.255Z,12.73
2017-10-12T19:39:51.866Z,8.50
2017-10-12T19:42:18.498Z,9.95
2017-10-12T19:44:45.110Z,13.13
2017-10-12T19:47:11.724Z,8.88
2017-10-12T19:49:38.419Z,10.98
2017-10-12T19:52:05.050Z,13.18
2017-10-12T19:54:31.710Z,10.38
2017-10-12T19:56:58.347Z,10.63
2017-10-12T19:59:25.070Z,12.00
2017-10-12T20:01:51.704Z,9.38
2017-10-12T20:04:18.319Z,12.50
2017-10-12T20:06:44.928Z,9.05
2017-10-12T20:09:11.550Z,9.95
2017-10-12T20:11:38.162Z,10.07
2017-10-12T20:14:19.749Z,14.50
2017-10-12T20:16:31.435Z,7.57
2017-10-12T20:18:58.042Z,7.62
2017-10-12T20:21:24.684Z,7.50
2017-10-12T20:23:51.282Z,8.18
2017-10-12T20:26:17.994Z,7.97
2017-10-12T20:28:44.634Z,7.60
2017-10-12T20:31:11.251Z,7.85
2017-10-12T20:33:37.858Z,7.45
2017-10-12T20:36:04.478Z,7.80
2017-10-12T20:38:31.086Z,8.27
2017-10-12T20:40:57.727Z,7.85
2017-10-12T20:43:24.334Z,7.80
2017-10-12T20:45:51.002Z,6.43
2017-10-12T20:48:17.631Z,6.53
2017-10-12T20:50:44.242Z,7.45
2017-10-12T20:53:10.857Z,7.30
2017-10-12T20:55:37.491Z,6.28
2017-10-12T20:58:04.206Z,7.72
2017-10-12T21:00:30.814Z,7.55
2017-10-12T21:02:57.434Z,6.12
2017-10-12T21:05:24.113Z,6.93
2017-10-12T21:07:50.724Z,6.53
2017-10-12T21:10:17.339Z,6.90
2017-10-12T21:12:43.943Z,8.48
2017-10-12T21:15:10.561Z,7.10
2017-10-12T21:17:37.207Z,6.40
2017-10-12T21:20:03.823Z,8.13
2017-10-12T21:22:30.443Z,6.70
2017-10-12T21:24:57.046Z,6.12
2017-10-12T21:27:23.650Z,6.75
2017-10-12T21:29:50.266Z,7.20
2017-10-12T21:32:16.866Z,7.47
2017-10-12T21:34:43.479Z,7.03
2017-10-12T21:37:10.098Z,7.72
2017-10-12T21:39:36.755Z,8.07
2017-10-12T21:42:03.358Z,8.73
2017-10-12T21:44:29.985Z,8.68
2017-10-12T21:46:56.595Z,8.60
2017-10-12T21:49:23.195Z,8.25
2017-10-12T21:51:49.850Z,7.75
2017-10-12T21:54:16.454Z,9.45
2017-10-12T21:56:43.126Z,8.55
2017-10-12T21:59:09.727Z,7.93
2017-10-12T22:01:36.339Z,7.75
2017-10-12T22:04:02.959Z,7.07
2017-10-12T22:06:29.563Z,6.68
2017-10-12T22:08:56.171Z,7.20
2017-10-12T22:11:22.854Z,6.90
2017-10-12T22:13:49.457Z,7.50
2017-10-12T22:16:16.054Z,7.53
2017-10-12T22:18:42.674Z,6.95
2017-10-12T22:21:09.274Z,7.57
2017-10-12T22:23:35.884Z,7.75
2017-10-12T22:26:02.590Z,8.00
2017-10-12T22:28:29.190Z,6.80
2017-10-12T22:30:55.813Z,7.20
2017-10-12T22:33:23.043Z,7.28
2017-10-12T22:35:49.655Z,8.50
2017-10-12T22:38:16.278Z,8.85
2017-10-12T22:40:42.891Z,8.38
2017-10-12T22:43:09.519Z,9.10
2017-10-12T22:45:36.215Z,7.30
2017-10-12T22:48:02.870Z,8.30
2017-10-12T22:50:29.485Z,7.97
2017-10-12T22:52:56.131Z,7.97
2017-10-12T22:55:22.771Z,8.32
2017-10-12T22:57:49.391Z,8.40
2017-10-12T23:00:15.998Z,8.45
2017-10-12T23:02:42.607Z,9.20
2017-10-12T23:05:09.222Z,7.55
2017-10-12T23:07:35.866Z,8.57
2017-10-12T23:10:02.463Z,7.82
2017-10-12T23:12:29.090Z,8.27
2017-10-12T23:14:55.698Z,8.25
2017-10-12T23:17:22.307Z,8.20
2017-10-12T23:19:48.922Z,7.70
2017-10-12T23:22:15.531Z,8.23
2017-10-12T23:24:42.134Z,8.15
2017-10-12T23:27:08.759Z,8.18
2017-10-12T23:29:35.366Z,9.30
2017-10-12T23:32:01.984Z,11.18
2017-10-12T23:34:28.692Z,7.68
2017-10-12T23:36:55.302Z,9.45
2017-10-12T23:39:21.932Z,7.95
2017-10-12T23:41:48.534Z,7.97
2017-10-12T23:44:15.138Z,9.68
2017-10-12T23:46:41.762Z,7.90
2017-10-12T23:49:08.417Z,8.15
2017-10-12T23:51:35.031Z,9.00
2017-10-12T23:54:01.654Z,8.68
2017-10-12T23:56:28.257Z,9.05
2017-10-12T23:58:54.878Z,9.32
